Flight Track Log - Related Links

Times and Time Zones

All times are in EDT time to prevent confusion due to time zone crossing. See the CTL16 flight status page for this flight to view local times or setup timezone preferences in your user account.

Time Position Orientation Groundspeed Altitude Reporting Facility
EDT Latitude Longitude Course Direction KTS MPH feet Rate Location/Type
Tue 08:33:03 PM 39.4333 -84.4167 45° Northeast 191 220 2,000  Level Cincinnati TRACON
Tue 08:34:18 PM 39.4811 -84.3550 45° Northeast 185 213 2,400 240 Climbing Indianapolis Center
Tue 08:35:33 PM 39.5300 -84.2928 44° Northeast 197 227 2,600 341 Climbing Indianapolis Center
Tue 08:36:21 PM 39.5589 -84.2544 46° Northeast 195 224 3,100 491 Climbing Indianapolis Center
Tue 08:37:23 PM 39.5964 -84.2033 46° Northeast 194 223 3,500 390 Climbing Indianapolis Center
Tue 08:38:24 PM 39.6325 -84.1531 47° Northeast 192 221 3,900 585 Climbing Indianapolis Center
Tue 08:39:26 PM 39.6689 -84.1094 43° Northeast 184 212 4,700 780 Climbing Indianapolis Center
Tue 08:40:27 PM 39.7044 -84.0661 43° Northeast 177 204 5,500 689 Climbing Indianapolis Center
Tue 08:41:28 PM 39.7397 -84.0203 45° Northeast 176 203 6,100 537 Climbing Indianapolis Center
Tue 08:42:30 PM 39.7758 -83.9736 45° Northeast 179 206 6,600 488 Climbing Indianapolis Center
Tue 08:43:31 PM 39.8167 -83.9319 38° Northeast 182 209 7,100 195 Climbing Indianapolis Center
Tue 08:44:33 PM 39.8608 -83.8844 40° Northeast 192 221 7,000 -49 Descending Indianapolis Center
Tue 08:45:34 PM 39.9042 -83.8306 44° Northeast 203 234 7,000  Level Indianapolis Center
Tue 08:46:36 PM 39.9511 -83.7836 37° Northeast 209 241 7,000  Level Indianapolis Center
Tue 08:47:37 PM 39.9950 -83.7283 44° Northeast 212 244 7,000  Level Indianapolis Center
Tue 08:48:39 PM 40.0375 -83.6719 45° Northeast 214 246 7,000  Level Indianapolis Center
Tue 08:49:40 PM 40.0872 -83.6075 45° Northeast 213 245 7,000  Level Indianapolis Center
Tue 08:50:39 PM 40.1247 -83.5569 46° Northeast 211 243 7,000 50 Level Indianapolis Center
Tue 08:51:40 PM 40.1689 -83.4967 46° Northeast 215 247 7,100 48 Climbing Indianapolis Center
Tue 08:52:44 PM 40.2144 -83.4411 43° Northeast 213 245 7,100 -55 Level Indianapolis Center
Tue 08:53:29 PM 40.2467 -83.4025 42° Northeast 213 245 7,000 -97 Descending Indianapolis Center
Tue 08:53:46 PM 40.2581 -83.3869 46° Northeast 213 245 7,000  Level Indianapolis Center
Tue 08:54:42 PM 40.2978 -83.3350 45° Northeast 215 247 7,000  Level Indianapolis Center
Tue 08:55:42 PM 40.3392 -83.2797 46° Northeast 211 243 7,000 47 Level Indianapolis Center
Tue 08:56:50 PM 40.3833 -83.2192 46° Northeast 210 242 7,100  Climbing Indianapolis Center
Tue 08:57:51 PM 40.4239 -83.1647 46° Northeast 208 239 7,000 -49 Descending Indianapolis Center
Tue 08:58:52 PM 40.4653 -83.1111 45° Northeast 207 238 7,000  Level Indianapolis Center
Tue 08:59:54 PM 40.5067 -83.0597 43° Northeast 203 234 7,000  Level Indianapolis Center
Tue 09:00:55 PM 40.5497 -82.9981 47° Northeast 205 236 7,000 -49 Level Indianapolis Center
Tue 09:01:56 PM 40.5939 -82.9514 39° Northeast 202 232 6,900 -197 Descending Indianapolis Center
Tue 09:02:57 PM 40.6364 -82.8992 43° Northeast 206 237 6,600 -390 Descending Indianapolis Center
Tue 09:03:59 PM 40.6778 -82.8414 47° Northeast 213 245 6,100 -488 Descending Indianapolis Center
Tue 09:05:00 PM 40.7206 -82.7825 46° Northeast 218 251 5,600 -541 Descending Indianapolis Center
Tue 09:06:01 PM 40.7639 -82.7219 47° Northeast 223 257 5,000 -295 Descending Indianapolis Center
Tue 09:07:02 PM 40.8042 -82.6669 46° Northeast 211 243 5,000  Level Indianapolis Center
Tue 09:07:55 PM 40.8389 -82.6222 44° Northeast 203 234 5,000  Level Cleveland Center
Tue 09:09:14 PM 40.8903 -82.5497 47° Northeast 202 232 5,000  Level Cleveland Center

Login

Don't have an account? Register now (free) for customized features, flight alerts, and more!